createdAt,value
2018-04-18T00:08:37.605Z,0.0
2018-04-18T00:22:59.025Z,0.0
2018-04-18T00:34:48.777Z,0.0
2018-04-18T00:49:46.384Z,0.0
2018-04-18T01:02:24.261Z,0.0
2018-04-18T01:14:28.573Z,0.0
2018-04-18T01:25:20.564Z,0.0
2018-04-18T01:54:06.259Z,0.0
2018-04-18T02:21:25.063Z,0.0
2018-04-18T02:32:42.125Z,0.0
2018-04-18T02:42:56.665Z,0.0
2018-04-18T02:54:10.314Z,0.0
2018-04-18T03:22:37.277Z,0.0
2018-04-18T03:35:40.665Z,0.0
2018-04-18T04:12:52.577Z,20.0
2018-04-18T04:39:56.879Z,420.0
2018-04-18T04:52:54.401Z,812.0
2018-04-18T05:03:39.873Z,1304.0
2018-04-18T05:13:51.367Z,1644.0
2018-04-18T05:37:46.940Z,2368.0
2018-04-18T05:50:14.634Z,2716.0
2018-04-18T06:01:41.820Z,3056.0
2018-04-18T06:15:38.084Z,3396.0
2018-04-18T06:39:25.751Z,4184.0
2018-04-18T07:05:56.204Z,11572.0
2018-04-18T07:16:10.699Z,19072.0
2018-04-18T07:42:18.603Z,18944.0
2018-04-18T07:57:38.046Z,20640.0
2018-04-18T08:08:07.111Z,21728.0
2018-04-18T08:31:26.353Z,32736.0
2018-04-18T08:41:40.999Z,43456.0
2018-04-18T08:53:12.309Z,40672.0
2018-04-18T09:13:42.888Z,42048.0
2018-04-18T09:24:16.542Z,46016.0
2018-04-18T09:44:46.838Z,50496.0
2018-04-18T09:55:01.007Z,46528.0
2018-04-18T10:05:15.664Z,59872.0
2018-04-18T10:25:43.643Z,63104.0
2018-04-18T10:35:58.028Z,59200.0
2018-04-18T10:46:12.139Z,62176.0
2018-04-18T10:56:26.775Z,64320.0
2018-04-18T11:06:41.114Z,59968.0
2018-04-18T11:16:54.791Z,58304.0
2018-04-18T11:27:09.204Z,61824.0
2018-04-18T11:37:25.421Z,60032.0
2018-04-18T11:47:40.736Z,58304.0
2018-04-18T11:57:53.656Z,64128.0
2018-04-18T12:08:09.054Z,59360.0
2018-04-18T12:18:23.827Z,65088.0
2018-04-18T12:28:38.383Z,66176.0
2018-04-18T12:38:50.460Z,55264.0
2018-04-18T12:49:02.274Z,56320.0
2018-04-18T12:59:14.529Z,48768.0
2018-04-18T13:09:26.391Z,53728.0
2018-04-18T13:19:40.454Z,54304.0
2018-04-18T13:29:54.791Z,51456.0
2018-04-18T13:40:06.971Z,47296.0
2018-04-18T13:54:34.522Z,21632.0
2018-04-18T14:04:48.120Z,20960.0
2018-04-18T14:15:33.378Z,19552.0
2018-04-18T14:26:21.915Z,20928.0
2018-04-18T14:36:34.430Z,29760.0
2018-04-18T14:46:46.272Z,30048.0
2018-04-18T14:57:01.222Z,23328.0
2018-04-18T15:07:12.935Z,19168.0
2018-04-18T15:17:25.556Z,17984.0
2018-04-18T15:27:39.612Z,17504.0
2018-04-18T15:37:53.630Z,14016.0
2018-04-18T15:48:08.348Z,13184.0
2018-04-18T15:58:53.591Z,7644.0
2018-04-18T16:09:07.139Z,6256.0
2018-04-18T16:19:55.438Z,5868.0
2018-04-18T16:30:43.739Z,5472.0
2018-04-18T16:41:00.220Z,4632.0
2018-04-18T16:51:16.561Z,4200.0
2018-04-18T17:01:30.908Z,3628.0
2018-04-18T17:11:43.265Z,3252.0
2018-04-18T17:21:56.269Z,2828.0
2018-04-18T17:45:00.944Z,1740.0
2018-04-18T17:56:44.210Z,1260.0
2018-04-18T19:09:07.035Z,0.0
2018-04-18T19:20:30.534Z,0.0
2018-04-18T19:31:15.817Z,0.0
2018-04-18T19:42:34.520Z,0.0
2018-04-18T20:11:36.040Z,0.0
2018-04-18T20:25:48.039Z,0.0
2018-04-18T20:36:32.742Z,0.0
2018-04-18T20:46:44.744Z,0.0
2018-04-18T20:58:06.729Z,0.0
2018-04-18T21:08:55.256Z,0.0
2018-04-18T21:19:10.089Z,0.0
2018-04-18T21:29:24.457Z,0.0
2018-04-18T21:39:38.376Z,0.0
2018-04-18T21:49:54.667Z,0.0
2018-04-18T22:00:09.176Z,0.0
2018-04-18T22:10:22.642Z,0.0
2018-04-18T22:20:36.224Z,0.0
2018-04-18T22:31:21.426Z,0.0
2018-04-18T22:41:33.295Z,0.0
2018-04-18T22:52:18.629Z,0.0
2018-04-18T23:02:32.794Z,0.0
2018-04-18T23:12:46.568Z,0.0
2018-04-18T23:23:00.508Z,0.0
2018-04-18T23:33:15.022Z,0.0
2018-04-18T23:43:29.017Z,0.0
2018-04-18T23:54:13.426Z,0.0
